logo
Search for airport 
image banner adimage banner adimage banner ad
image banner ad

LF0621 - Isola 2000

Located in Saint-Sauveur-de-Tinée, France

ICAO - , IATA -

Data provided by Airmate  

General information

Coordinates: N44°10'24" E7°9'46"
Elevation is 7447 feet MSL.
 
View others Airports in Provence-Alpes-Côte-d'Azur

Operational data

Special qualification required
Current time UTC:
Current local time:
Weather at : LIMZ - Cuneo/Levaldigi ( 55 km )
METAR: LIMZ 040850Z AUTO 35004KT 270V030 6000 SCT002/// BKN038/// 19/17 Q1025
TAF: TAF AMD LIMZ 040821Z 0408/0506 VRB05KT 9999 FEW040 TEMPO 0408/0410 0300 FG TEMPO 0500/0506 1000 -RA BR BKN012
View NOTAMs / SUP AIP / TFR affecting this airport [VIEW]
Communications frequencies: [VIEW]

Runways:

RWY identifierQFULength (ft)Width (ft)SurfaceLDA (ft)
1782065GRASS
3582065GRASS

Airport contact information

Address: Saint-Sauveur-de-Tinée France

Satellite view of LF0621